Latest Flight | Flight Log | Data Trends | Login | Join FlightData.com!
Flight Info - N282EE (Cirrus SR22 #1619)
Date
Origin
Dest
Depart
Arrive
Hobbs
Flight Time
Ground Time
Flight Distance
Taxi Distance
Fuel
Fuel/hr
Fuel/nm
Altitude
Gnd Speed
Fri, Apr 15, 2022 O69 O69 22:41 22:45 0.07 hrs 0 hrs (0:00) 0.07 hrs (0:04) 0 nm 0.27 nm 0.1 gal 1.54 gal/hr 0 gal/nm 0 msl 0 kts
Flight Track | Google Earth Export: 3D View, Cockpit View
NEXRAD Archive
Zoom In: Double click. Zoom Out: Double right-click.
Scroll Map: Left-click and drag. Show on graph: Click on track.
Graph |
Zoom In: Click and Drag to the right and down. Zoom Out: Click and Drag to the left.
Scroll Chart (while zoomed in): Hold right mouse-button.
More Flights - N282EE
Fri, Apr 15, 2022 O69 O69 22:41 22:45 0.07 hrs 0 hrs 0.00 nm 0.10 gal 1.54 gal/hr 0.00 gal/nm 0 msl 0 kts
Fri, Apr 15, 2022 O68 O69 21:19 22:29 1.15 hrs 0.9 hrs 130.76 nm 13.70 gal 11.93 gal/hr 0.10 gal/nm 0 msl 144 kts
Cruise 21:38:00 21:39:48   1m 48s 0 nm 0.91 gal 30 gal/h 0 gal/nm 0 feet 148 kts    
Cruise 21:47:18 22:04:30   17m 12s 0 nm 4.02 gal 14 gal/h 0 gal/nm 0 feet 160 kts    
Cruise 22:09:36 22:20:54   11m 18s 0 nm 2.07 gal 11 gal/h 0 gal/nm 0 feet 148 kts    
Thu, Apr 14, 2022 KTUS O68 16:39 21:18 4.55 hrs 3.89 hrs 612.68 nm 58.90 gal 12.95 gal/hr 0.10 gal/nm 0 msl 156 kts
Cruise 17:21:54 17:25:54   4m 00s 0 nm 2.14 gal 32 gal/h 0 gal/nm 0 feet 136 kts    
Cruise 17:32:06 19:59:18   2h 27m 0 nm 34.35 gal 14 gal/h 0 gal/nm 0 feet 156 kts    
Cruise 20:04:30 21:03:48   59m 18s 0 nm 13.84 gal 14 gal/h 0 gal/nm 0 feet 164 kts    
Wed, Apr 13, 2022 E11 KTUS 17:56 21:37 3.62 hrs 3.33 hrs 444.40 nm 51.10 gal 14.14 gal/hr 0.11 gal/nm 0 msl 132 kts
Cruise 18:12:12 18:16:30   4m 18s 0 nm 2.23 gal 31 gal/h 0 gal/nm 0 feet 129 kts    
Cruise 18:22:18 18:25:06   2m 48s 0 nm 0.61 gal 13 gal/h 0 gal/nm 0 feet 135 kts    
Cruise 18:48:06 18:55:12   7m 06s 0 nm 1.9 gal 16 gal/h 0 gal/nm 0 feet 128 kts    
Cruise 19:06:42 20:06:30   59m 48s 0 nm 15.95 gal 16 gal/h 0 gal/nm 0 feet 129 kts    
Cruise 20:12:12 21:13:12   1h 01m 0 nm 13.22 gal 13 gal/h 0 gal/nm 0 feet 139 kts    
Wed, Apr 13, 2022 KUTS E11 13:16 16:43 3.4 hrs 2.8 hrs 388.93 nm 41.10 gal 12.09 gal/hr 0.11 gal/nm 0 msl 138 kts
Cruise 13:54:12 14:01:48   7m 36s 0 nm 3.68 gal 29 gal/h 0 gal/nm 0 feet 124 kts    
Cruise 14:08:36 14:31:42   23m 06s 0 nm 5.01 gal 13 gal/h 0 gal/nm 0 feet 146 kts    
Cruise 14:42:18 14:49:54   7m 36s 0 nm 1.4 gal 11 gal/h 0 gal/nm 0 feet 136 kts    
Cruise 14:55:00 16:02:00   1h 07m 0 nm 14.52 gal 13 gal/h 0 gal/nm 0 feet 141 kts    
Cruise 16:21:54 16:27:18   5m 24s 0 nm 0.99 gal 11 gal/h 0 gal/nm 0 feet 142 kts    
Cruise 16:34:24 16:36:18   1m 54s 0 nm 0.29 gal 9 gal/h 0 gal/nm 0 feet 138 kts    
Tue, Apr 12, 2022 KCSG KUTS 11:03 15:26 4.32 hrs 3.9 hrs 577.88 nm 53.70 gal 12.44 gal/hr 0.09 gal/nm 0 msl 147 kts
Cruise 11:29:42 11:32:06   2m 24s 0 nm 1.21 gal 30 gal/h 0 gal/nm 0 feet 117 kts    
Cruise 11:40:48 11:50:00   9m 12s 0 nm 2 gal 13 gal/h 0 gal/nm 0 feet 148 kts    
Cruise 11:55:12 14:57:36   3h 02m 0 nm 39.52 gal 13 gal/h 0 gal/nm 0 feet 154 kts    
Cruise 15:02:42 15:05:12   2m 30s 0 nm 0.42 gal 10 gal/h 0 gal/nm 0 feet 125 kts    
Sun, Apr 10, 2022 KPYG KCSG 17:30 19:27 1.9 hrs 1.74 hrs 269.28 nm 26.30 gal 13.85 gal/hr 0.10 gal/nm 0 msl 153 kts
Cruise 17:42:12 17:45:24   3m 12s 0 nm 1.61 gal 30 gal/h 0 gal/nm 0 feet 153 kts    
Cruise 17:54:00 19:03:18   1h 09m 0 nm 16.17 gal 14 gal/h 0 gal/nm 0 feet 158 kts    
Complete Flight Log (236)
FlightData.com is sponsored by AEROCOR